createdAt,value
2017-11-19T00:15:48.568Z,85.53
2017-11-19T00:33:11.426Z,85.85
2017-11-19T00:36:49.076Z,86.19
2017-11-19T00:40:00.360Z,86.03
2017-11-19T00:53:17.396Z,85.88
2017-11-19T00:56:28.213Z,86.02
2017-11-19T00:59:44.382Z,85.49
2017-11-19T01:13:13.254Z,85.58
2017-11-19T01:29:44.564Z,87.29
2017-11-19T01:36:37.551Z,86.36
2017-11-19T01:43:13.699Z,88.23
2017-11-19T01:49:54.548Z,88.45
2017-11-19T02:03:22.190Z,88.13
2017-11-19T02:09:59.558Z,88.80
2017-11-19T02:23:39.782Z,88.40
2017-11-19T02:47:00.029Z,91.00
2017-11-19T02:53:38.896Z,90.99
2017-11-19T03:00:08.698Z,91.36
2017-11-19T03:17:02.270Z,91.39
2017-11-19T03:19:36.362Z,91.36
2017-11-19T03:22:32.945Z,91.30
2017-11-19T03:25:49.361Z,91.08
2017-11-19T03:32:27.763Z,91.39
2017-11-19T03:46:07.356Z,91.12
2017-11-19T03:48:46.054Z,90.95
2017-11-19T04:01:48.633Z,92.28
2017-11-19T04:04:35.871Z,92.11
2017-11-19T04:07:25.075Z,92.95
2017-11-19T04:10:14.412Z,92.29
2017-11-19T04:13:07.813Z,92.33
2017-11-19T04:16:00.537Z,92.67
2017-11-19T04:18:42.295Z,92.64
2017-11-19T04:21:30.502Z,93.31
2017-11-19T04:24:04.697Z,92.52
2017-11-19T04:26:39.141Z,92.21
2017-11-19T04:29:14.348Z,92.87
2017-11-19T04:31:47.737Z,91.38
2017-11-19T04:34:21.089Z,91.94
2017-11-19T04:36:52.762Z,91.49
2017-11-19T04:39:28.370Z,90.80
2017-11-19T04:42:02.315Z,91.02
2017-11-19T04:44:36.294Z,90.43
2017-11-19T04:47:08.780Z,90.70
2017-11-19T04:49:42.492Z,90.76
2017-11-19T04:52:16.942Z,90.62
2017-11-19T04:54:51.280Z,90.45
2017-11-19T04:57:25.679Z,90.35
2017-11-19T04:59:59.284Z,90.19
2017-11-19T05:02:32.735Z,90.23
2017-11-19T05:05:03.811Z,90.03
2017-11-19T05:07:38.667Z,90.02
2017-11-19T05:10:12.344Z,89.70
2017-11-19T05:12:47.783Z,89.54
2017-11-19T05:15:21.072Z,89.53
2017-11-19T05:17:55.926Z,89.75
2017-11-19T05:20:29.145Z,89.42
2017-11-19T05:23:03.941Z,90.24
2017-11-19T05:25:38.878Z,90.28
2017-11-19T05:28:13.669Z,90.10
2017-11-19T05:30:46.806Z,90.54
2017-11-19T05:33:19.134Z,90.21
2017-11-19T05:35:53.435Z,90.51
2017-11-19T05:38:26.827Z,90.11
2017-11-19T05:41:01.779Z,90.71
2017-11-19T05:43:37.227Z,90.08
2017-11-19T05:46:09.969Z,90.00
2017-11-19T05:48:40.693Z,90.15
2017-11-19T05:51:08.193Z,90.98
2017-11-19T05:53:44.004Z,91.16
2017-11-19T05:56:18.795Z,91.46
2017-11-19T05:58:53.255Z,91.26
2017-11-19T06:01:25.303Z,91.21
2017-11-19T06:03:58.872Z,91.38
2017-11-19T06:06:31.412Z,91.92
2017-11-19T06:09:04.421Z,91.19
2017-11-19T06:11:33.931Z,91.45
2017-11-19T06:14:01.454Z,91.55
2017-11-19T06:16:29.567Z,91.18
2017-11-19T06:18:57.057Z,91.50
2017-11-19T06:21:24.549Z,91.63
2017-11-19T06:23:52.056Z,91.52
2017-11-19T06:26:19.543Z,90.69
2017-11-19T06:28:47.053Z,90.30
2017-11-19T06:31:14.582Z,90.79
2017-11-19T06:33:42.084Z,90.88
2017-11-19T06:36:09.575Z,90.68
2017-11-19T06:38:37.058Z,90.72
2017-11-19T06:41:04.587Z,90.72
2017-11-19T06:43:38.493Z,90.43
2017-11-19T06:46:06.048Z,90.20
2017-11-19T06:48:40.559Z,90.01
2017-11-19T06:51:08.079Z,89.86
2017-11-19T06:53:36.324Z,89.54
2017-11-19T06:56:05.448Z,89.80
2017-11-19T06:58:32.942Z,90.09
2017-11-19T07:01:04.510Z,90.26
2017-11-19T07:03:32.015Z,89.72
2017-11-19T07:06:05.457Z,89.13
2017-11-19T07:08:32.954Z,90.26
2017-11-19T07:11:02.322Z,90.20
2017-11-19T07:13:36.229Z,90.80
2017-11-19T07:16:03.725Z,90.30
2017-11-19T07:18:37.448Z,90.23
2017-11-19T07:21:11.349Z,91.78
2017-11-19T07:23:38.848Z,91.90
2017-11-19T07:26:12.334Z,92.66
2017-11-19T07:28:39.844Z,93.99
2017-11-19T07:31:12.228Z,94.22
2017-11-19T07:33:44.620Z,94.61
2017-11-19T07:36:12.171Z,95.04
2017-11-19T07:38:46.108Z,94.38
2017-11-19T07:41:14.790Z,93.79
2017-11-19T07:43:46.827Z,93.14
2017-11-19T07:46:20.217Z,93.47
2017-11-19T07:48:47.721Z,94.05
2017-11-19T07:51:25.098Z,94.61
2017-11-19T07:53:56.682Z,95.82
2017-11-19T07:56:24.197Z,95.35
2017-11-19T07:58:57.371Z,94.49
2017-11-19T08:01:30.152Z,94.18
2017-11-19T08:04:00.553Z,95.14
2017-11-19T08:06:33.758Z,95.25
2017-11-19T08:09:08.423Z,95.48
2017-11-19T08:11:43.120Z,95.59
2017-11-19T08:14:17.664Z,95.94
2017-11-19T08:16:52.320Z,95.08
2017-11-19T08:19:24.764Z,95.34
2017-11-19T08:21:59.408Z,95.12
2017-11-19T08:24:34.271Z,95.57
2017-11-19T08:27:09.526Z,93.56
2017-11-19T08:29:43.280Z,91.52
2017-11-19T08:32:16.438Z,89.20
2017-11-19T08:34:48.022Z,89.64
2017-11-19T08:37:22.585Z,90.73
2017-11-19T08:39:58.863Z,91.05
2017-11-19T08:42:32.912Z,89.93
2017-11-19T08:45:06.325Z,90.91
2017-11-19T08:47:40.119Z,91.51
2017-11-19T08:50:13.958Z,92.51
2017-11-19T08:52:48.865Z,93.59
2017-11-19T08:55:24.423Z,91.97
2017-11-19T08:57:58.363Z,91.69
2017-11-19T09:00:31.875Z,90.89
2017-11-19T09:03:04.917Z,90.33
2017-11-19T09:05:36.957Z,89.93
2017-11-19T09:08:11.531Z,89.64
2017-11-19T09:10:46.983Z,88.47
2017-11-19T09:13:21.022Z,89.11
2017-11-19T09:15:53.295Z,91.16
2017-11-19T09:18:22.571Z,90.88
2017-11-19T09:20:55.504Z,90.40
2017-11-19T09:23:29.363Z,89.66
2017-11-19T09:26:03.996Z,90.62
2017-11-19T09:28:38.129Z,89.39
2017-11-19T09:31:12.151Z,88.19
2017-11-19T09:33:45.123Z,90.20
2017-11-19T09:36:43.369Z,88.70
2017-11-19T09:39:36.207Z,88.01
2017-11-19T09:42:13.376Z,89.01
2017-11-19T09:44:48.327Z,88.43
2017-11-19T09:47:23.199Z,86.51
2017-11-19T09:49:56.085Z,86.51
2017-11-19T09:52:26.769Z,86.30
2017-11-19T09:54:58.247Z,84.46
2017-11-19T09:57:30.715Z,85.31
2017-11-19T10:00:05.567Z,86.55
2017-11-19T10:02:39.270Z,83.91
2017-11-19T10:05:10.161Z,83.22
2017-11-19T10:07:44.498Z,87.19
2017-11-19T10:10:20.118Z,89.14
2017-11-19T10:12:53.753Z,90.09
2017-11-19T10:15:33.898Z,88.17
2017-11-19T10:18:22.843Z,88.14
2017-11-19T10:21:04.991Z,87.14
2017-11-19T10:23:42.208Z,86.99
2017-11-19T10:26:09.737Z,86.80
2017-11-19T10:28:40.993Z,79.76
2017-11-19T10:31:08.503Z,83.42
2017-11-19T10:33:37.436Z,84.88
2017-11-19T10:36:04.935Z,86.25
2017-11-19T10:38:32.459Z,86.75
2017-11-19T10:41:00.039Z,85.01
2017-11-19T10:43:27.565Z,82.37
2017-11-19T10:45:55.071Z,70.36
2017-11-19T10:48:22.584Z,61.91
2017-11-19T10:50:50.091Z,63.28
2017-11-19T10:53:17.600Z,49.08
2017-11-19T10:55:45.116Z,50.61
2017-11-19T10:58:12.640Z,53.37
2017-11-19T11:00:41.100Z,64.06
2017-11-19T11:03:08.607Z,58.22
2017-11-19T11:05:39.126Z,56.21
2017-11-19T11:08:06.645Z,52.18
2017-11-19T11:10:35.082Z,54.59
2017-11-19T11:13:02.594Z,51.00
2017-11-19T11:15:32.575Z,50.76
2017-11-19T11:18:00.084Z,51.62
2017-11-19T11:20:30.030Z,58.03
2017-11-19T11:22:57.552Z,63.87
2017-11-19T11:25:25.679Z,65.71
2017-11-19T11:27:53.202Z,68.94
2017-11-19T11:30:21.014Z,68.92
2017-11-19T11:32:48.512Z,70.90
2017-11-19T11:35:16.037Z,72.35
2017-11-19T11:37:43.572Z,71.84
2017-11-19T11:40:11.107Z,54.63
2017-11-19T11:42:38.812Z,49.09
2017-11-19T11:45:06.330Z,42.60
2017-11-19T11:47:34.655Z,46.04
2017-11-19T11:50:02.174Z,42.68
2017-11-19T11:52:33.050Z,44.65
2017-11-19T11:55:00.577Z,44.11
2017-11-19T11:57:28.127Z,45.08
2017-11-19T11:59:55.653Z,44.29
2017-11-19T12:02:26.353Z,41.16
2017-11-19T12:04:53.888Z,48.34
2017-11-19T12:07:22.365Z,53.65
2017-11-19T12:09:49.893Z,53.47
2017-11-19T12:12:17.432Z,57.63
2017-11-19T12:14:45.230Z,56.48
2017-11-19T12:17:12.820Z,53.69
2017-11-19T12:19:41.185Z,55.59
2017-11-19T12:22:08.682Z,56.62
2017-11-19T12:24:38.062Z,55.92
2017-11-19T12:27:05.561Z,51.98
2017-11-19T12:29:36.191Z,53.65
2017-11-19T12:32:03.699Z,51.15
2017-11-19T12:34:35.042Z,45.47
2017-11-19T12:37:02.569Z,46.28
2017-11-19T12:39:31.215Z,45.06
2017-11-19T12:41:58.740Z,54.63
2017-11-19T12:44:26.579Z,51.22
2017-11-19T12:46:54.469Z,54.44
2017-11-19T12:49:21.975Z,58.90
2017-11-19T12:51:49.486Z,58.67
2017-11-19T12:54:16.997Z,61.21
2017-11-19T12:56:45.544Z,60.38
2017-11-19T12:59:17.454Z,59.98
2017-11-19T13:01:45.292Z,61.92
2017-11-19T13:04:15.598Z,59.02
2017-11-19T13:06:48.691Z,57.94
2017-11-19T13:09:27.657Z,59.52
2017-11-19T13:12:02.872Z,59.71
2017-11-19T13:14:34.377Z,61.23
2017-11-19T13:17:08.712Z,61.23
2017-11-19T13:19:42.726Z,61.63
2017-11-19T13:22:10.241Z,62.25
2017-11-19T13:24:37.776Z,60.23
2017-11-19T13:27:05.284Z,63.70
2017-11-19T13:30:07.377Z,63.92
2017-11-19T13:32:34.899Z,65.83
2017-11-19T13:35:02.425Z,60.46
2017-11-19T13:37:29.913Z,58.47
2017-11-19T13:43:44.058Z,60.21
2017-11-19T13:46:11.570Z,56.85
2017-11-19T13:48:39.078Z,58.30
2017-11-19T13:51:06.574Z,57.63
2017-11-19T13:56:50.021Z,61.09
2017-11-19T13:59:17.535Z,62.55
2017-11-19T14:01:45.043Z,60.67
2017-11-19T14:04:12.555Z,63.56
2017-11-19T14:06:40.062Z,63.09
2017-11-19T14:09:07.589Z,64.94
2017-11-19T14:11:35.108Z,65.07
2017-11-19T14:14:02.623Z,64.85
2017-11-19T14:16:30.129Z,63.73
2017-11-19T14:18:58.043Z,65.62
2017-11-19T14:21:25.549Z,64.99
2017-11-19T14:23:56.172Z,64.69
2017-11-19T14:26:23.750Z,66.17
2017-11-19T14:28:51.269Z,66.09
2017-11-19T14:31:18.827Z,65.89
2017-11-19T14:33:46.327Z,65.89
2017-11-19T14:36:13.820Z,66.08
2017-11-19T14:38:41.345Z,67.54
2017-11-19T14:41:09.050Z,67.98
2017-11-19T14:43:36.564Z,68.55
2017-11-19T14:46:04.060Z,67.49
2017-11-19T14:48:31.557Z,68.79
2017-11-19T14:50:59.060Z,68.98
2017-11-19T14:53:26.562Z,71.19
2017-11-19T14:55:54.089Z,70.01
2017-11-19T14:58:21.618Z,68.96
2017-11-19T15:00:49.122Z,68.33
2017-11-19T15:03:16.624Z,69.23
2017-11-19T15:05:44.125Z,67.45
2017-11-19T15:08:12.180Z,68.47
2017-11-19T15:10:39.709Z,67.48
2017-11-19T15:13:07.408Z,69.52
2017-11-19T15:15:34.976Z,68.07
2017-11-19T15:18:02.497Z,70.26
2017-11-19T15:20:30.254Z,71.79
2017-11-19T15:22:58.113Z,70.01
2017-11-19T15:25:25.634Z,70.29
2017-11-19T15:27:53.217Z,70.91
2017-11-19T15:30:20.766Z,70.85
2017-11-19T15:32:48.403Z,71.42
2017-11-19T15:35:15.942Z,71.21
2017-11-19T15:37:43.451Z,71.34
2017-11-19T15:40:10.964Z,71.73
2017-11-19T15:42:38.501Z,72.03
2017-11-19T15:45:06.007Z,72.63
2017-11-19T15:47:33.506Z,72.23
2017-11-19T15:50:01.200Z,72.38
2017-11-19T15:52:28.704Z,72.96
2017-11-19T15:54:56.235Z,73.11
2017-11-19T15:57:23.758Z,73.79
2017-11-19T15:59:51.265Z,73.70
2017-11-19T16:02:18.840Z,74.01
2017-11-19T16:04:46.332Z,74.19
2017-11-19T16:07:16.389Z,74.14
2017-11-19T16:09:43.899Z,73.87
2017-11-19T16:12:14.053Z,74.54
2017-11-19T16:14:41.570Z,76.19
2017-11-19T16:17:09.112Z,76.21
2017-11-19T16:19:39.411Z,76.33
2017-11-19T16:22:06.950Z,75.99
2017-11-19T16:24:36.830Z,76.17
2017-11-19T16:27:04.734Z,75.75
2017-11-19T16:29:34.115Z,75.80
2017-11-19T16:32:02.729Z,75.75
2017-11-19T16:34:31.011Z,75.28
2017-11-19T16:37:00.178Z,75.71
2017-11-19T16:39:28.183Z,75.96
2017-11-19T16:41:57.473Z,76.64
2017-11-19T16:44:25.273Z,76.80
2017-11-19T16:46:55.177Z,77.04
2017-11-19T16:49:22.703Z,78.17
2017-11-19T16:51:53.270Z,81.66
2017-11-19T16:54:20.779Z,80.67
2017-11-19T16:56:51.470Z,79.24
2017-11-19T16:59:19.015Z,79.40
2017-11-19T17:01:49.688Z,80.22
2017-11-19T17:04:19.166Z,79.92
2017-11-19T17:06:46.659Z,80.19
2017-11-19T17:09:17.217Z,80.23
2017-11-19T17:11:44.739Z,80.33
2017-11-19T17:14:15.523Z,80.24
2017-11-19T17:16:43.145Z,80.93
2017-11-19T17:19:12.912Z,80.21
2017-11-19T17:21:41.219Z,81.00
2017-11-19T17:24:10.055Z,80.72
2017-11-19T17:26:38.707Z,81.02
2017-11-19T17:29:07.252Z,81.12
2017-11-19T17:31:36.804Z,80.66
2017-11-19T17:34:04.343Z,80.67
2017-11-19T17:36:36.329Z,80.99
2017-11-19T17:39:07.200Z,81.18
2017-11-19T17:41:34.739Z,81.20
2017-11-19T17:44:05.106Z,81.01
2017-11-19T17:46:32.715Z,81.23
2017-11-19T17:49:03.836Z,81.28
2017-11-19T17:51:31.370Z,81.59
2017-11-19T17:54:01.595Z,82.07
2017-11-19T17:56:29.287Z,82.03
2017-11-19T17:58:58.418Z,81.25
2017-11-19T18:01:26.665Z,81.23
2017-11-19T18:03:55.563Z,80.28
2017-11-19T18:06:24.327Z,80.48
2017-11-19T18:08:52.725Z,81.88
2017-11-19T18:11:22.113Z,81.33
2017-11-19T18:13:50.081Z,82.12
2017-11-19T18:16:20.338Z,81.50
2017-11-19T18:18:47.863Z,82.03
2017-11-19T18:21:18.919Z,82.56
2017-11-19T18:23:46.444Z,86.16
2017-11-19T18:26:16.304Z,86.12
2017-11-19T18:28:43.927Z,85.74
2017-11-19T18:31:12.377Z,85.88
2017-11-19T18:33:40.156Z,84.63
2017-11-19T18:36:08.970Z,84.04
2017-11-19T18:38:36.509Z,84.29
2017-11-19T18:41:06.342Z,84.25
2017-11-19T18:43:34.616Z,84.09
2017-11-19T18:46:06.171Z,84.04
2017-11-19T18:48:33.690Z,82.95
2017-11-19T18:51:03.481Z,83.42
2017-11-19T18:53:32.856Z,83.20
2017-11-19T18:56:01.210Z,83.55
2017-11-19T18:58:29.871Z,83.25
2017-11-19T19:00:58.276Z,83.08
2017-11-19T19:03:27.379Z,83.22
2017-11-19T19:05:55.261Z,83.63
2017-11-19T19:08:24.932Z,83.56
2017-11-19T19:10:52.492Z,83.26
2017-11-19T19:13:22.666Z,82.82
2017-11-19T19:15:50.171Z,83.72
2017-11-19T19:18:21.210Z,83.98
2017-11-19T19:20:48.761Z,83.35
2017-11-19T19:23:19.454Z,83.82
2017-11-19T19:25:46.977Z,83.72
2017-11-19T19:28:14.622Z,84.00
2017-11-19T19:30:42.109Z,83.51
2017-11-19T19:33:09.617Z,83.59
2017-11-19T19:35:37.105Z,84.03
2017-11-19T19:38:05.598Z,84.06
2017-11-19T19:40:33.118Z,83.44
2017-11-19T19:43:00.660Z,82.67
2017-11-19T19:45:28.341Z,82.75
2017-11-19T19:51:16.657Z,82.35
2017-11-19T19:53:44.164Z,82.60
2017-11-19T19:56:11.725Z,82.19
2017-11-19T20:58:57.721Z,80.64
2017-11-19T21:01:25.240Z,80.75
2017-11-19T21:03:52.828Z,81.13
2017-11-19T21:06:20.326Z,79.80
2017-11-19T21:08:47.844Z,80.84
2017-11-19T21:11:15.388Z,80.80
2017-11-19T21:13:42.898Z,80.68
2017-11-19T21:16:10.505Z,80.53
2017-11-19T21:18:38.121Z,80.22
2017-11-19T21:21:05.657Z,80.92
2017-11-19T21:23:33.170Z,80.24
2017-11-19T21:26:00.688Z,80.70
2017-11-19T21:28:28.302Z,80.52
2017-11-19T21:30:55.865Z,80.53
2017-11-19T21:33:23.526Z,79.95
2017-11-19T21:35:51.066Z,80.44
2017-11-19T21:38:18.691Z,81.06
2017-11-19T21:40:46.215Z,80.41
2017-11-19T21:43:13.708Z,80.86
2017-11-19T21:45:41.232Z,80.21
2017-11-19T21:48:08.756Z,79.73
2017-11-19T21:50:36.270Z,81.19
2017-11-19T21:53:03.826Z,80.29
2017-11-19T21:55:31.338Z,80.47
2017-11-19T21:57:58.851Z,80.38
2017-11-19T22:00:26.357Z,80.41
2017-11-19T22:02:53.871Z,80.19
2017-11-19T22:05:21.411Z,80.03
2017-11-19T22:07:48.908Z,79.95
2017-11-19T22:10:16.409Z,80.11
2017-11-19T22:12:43.941Z,80.35
2017-11-19T22:15:51.881Z,80.75
2017-11-19T22:18:19.375Z,80.36
2017-11-19T22:20:46.904Z,80.62
2017-11-19T22:23:14.430Z,80.00
2017-11-19T22:25:41.941Z,79.35
2017-11-19T22:28:09.434Z,79.70
2017-11-19T22:30:37.280Z,80.10
2017-11-19T22:33:04.782Z,79.96
2017-11-19T22:35:32.288Z,80.35
2017-11-19T22:37:59.887Z,80.07
2017-11-19T22:40:27.392Z,79.88
2017-11-19T22:42:59.664Z,79.59
2017-11-19T22:45:31.431Z,79.25
2017-11-19T22:48:02.636Z,79.49
2017-11-19T22:50:32.127Z,79.81
2017-11-19T22:53:01.881Z,79.42
2017-11-19T22:55:34.293Z,79.66
2017-11-19T22:58:06.387Z,80.36
2017-11-19T23:00:38.505Z,79.97
2017-11-19T23:03:08.741Z,79.91
2017-11-19T23:05:37.718Z,79.48
2017-11-19T23:08:08.179Z,79.91
2017-11-19T23:10:38.782Z,80.12
2017-11-19T23:13:07.838Z,79.87
2017-11-19T23:15:36.589Z,80.10
2017-11-19T23:18:08.025Z,79.56
2017-11-19T23:20:40.457Z,80.23
2017-11-19T23:23:09.333Z,80.08
2017-11-19T23:25:39.848Z,79.67
2017-11-19T23:28:11.023Z,79.97
2017-11-19T23:30:42.016Z,80.03
2017-11-19T23:33:13.469Z,79.89
2017-11-19T23:35:45.217Z,79.94
2017-11-19T23:38:15.040Z,80.31
2017-11-19T23:40:45.015Z,79.61
2017-11-19T23:43:15.129Z,79.56
2017-11-19T23:45:46.366Z,80.07
2017-11-19T23:48:17.118Z,79.34
2017-11-19T23:50:48.022Z,79.22
2017-11-19T23:53:19.877Z,78.50
2017-11-19T23:55:51.347Z,78.58
2017-11-19T23:58:21.926Z,79.38
